Time;durP1;ratioP1;P1;durP2;ratioP2;P2;SDS_P1;SDS_P2;PMS_P1;PMS_P2;Temp;Humidity;BMP_temperature;BMP_pressure;BME280_temperature;BME280_humidity;BME280_pressure;Samples;Min_cycle;Max_cycle;Signal;HPM_P1;HPM_P2
2021/06/26 00:01:44;;;;;;;13.25;11.65;;;;;;;19.23;66.48;100632.31;127244;1107;22446;-82
2021/06/26 00:04:14;;;;;;;13.15;11.78;;;;;;;19.21;66.29;100629.83;127014;1107;24582;-81
2021/06/26 00:06:45;;;;;;;13.08;11.80;;;;;;;19.19;66.37;100629.25;126867;1108;22456;-80
2021/06/26 00:09:21;;;;;;;13.58;12.15;;;;;;;19.17;66.16;100631.31;127155;1105;22446;-81
2021/06/26 00:11:51;;;;;;;12.75;11.30;;;;;;;19.14;66.23;100631.74;127232;1105;22442;-81
2021/06/26 00:14:21;;;;;;;12.05;11.05;;;;;;;19.12;65.98;100631.13;127129;1108;22465;-81
2021/06/26 00:16:52;;;;;;;15.15;11.93;;;;;;;19.10;66.45;100640.44;127174;1105;22578;-81
2021/06/26 00:19:25;;;;;;;13.28;10.90;;;;;;;19.08;66.56;100642.50;127314;1101;23203;-81
2021/06/26 00:21:55;;;;;;;11.45;10.33;;;;;;;19.08;66.43;100656.70;127786;1101;24546;-81
2021/06/26 00:24:25;;;;;;;10.53;9.53;;;;;;;19.08;66.31;100648.67;127908;1101;22424;-81
2021/06/26 00:26:55;;;;;;;11.68;10.38;;;;;;;19.09;66.91;100661.02;128124;1100;22410;-81
2021/06/26 00:29:25;;;;;;;11.43;10.35;;;;;;;19.07;66.55;100649.72;127777;1102;22436;-81
2021/06/26 00:31:55;;;;;;;11.25;10.00;;;;;;;19.09;66.40;100649.48;127797;1101;22748;-80
2021/06/26 00:34:26;;;;;;;11.13;10.03;;;;;;;19.06;66.10;100650.77;127869;1101;23292;-80
2021/06/26 00:36:56;;;;;;;10.80;9.80;;;;;;;19.04;66.48;100645.61;127860;1101;22392;-80
2021/06/26 00:39:31;;;;;;;11.60;10.50;;;;;;;19.03;66.41;100640.48;127785;1101;22513;-80
2021/06/26 00:42:08;;;;;;;12.45;11.35;;;;;;;19.01;66.39;100638.01;127858;1101;22452;-81
2021/06/26 00:44:41;;;;;;;10.88;9.88;;;;;;;19.00;66.39;100635.56;127852;1102;22518;-81
2021/06/26 00:47:12;;;;;;;11.80;10.63;;;;;;;19.01;66.63;100634.52;127820;1102;22861;-80
2021/06/26 00:49:42;;;;;;;11.30;10.30;;;;;;;19.01;66.86;100631.84;127772;1105;22410;-81
2021/06/26 00:52:12;;;;;;;13.90;12.55;;;;;;;19.01;66.57;100643.36;127704;1105;22396;-81
2021/06/26 00:54:44;;;;;;;12.13;11.03;;;;;;;19.00;66.80;100638.23;127199;1105;25062;-81
2021/06/26 00:57:14;;;;;;;12.00;10.73;;;;;;;18.96;66.78;100637.85;127277;1104;22433;-82
2021/06/26 00:59:46;;;;;;;11.60;10.60;;;;;;;18.95;66.58;100636.19;127371;1104;24570;-81
2021/06/26 01:02:16;;;;;;;13.08;11.78;;;;;;;18.91;67.05;100642.20;127438;1104;22399;-80
2021/06/26 01:04:46;;;;;;;13.48;12.18;;;;;;;18.91;66.86;100642.20;127311;1101;22856;-79
2021/06/26 01:07:17;;;;;;;12.38;11.28;;;;;;;18.89;66.85;100645.08;127902;1101;24514;-81
2021/06/26 01:09:47;;;;;;;12.78;11.68;;;;;;;18.86;67.44;100652.72;127737;1101;22404;-81
2021/06/26 01:12:17;;;;;;;13.50;12.15;;;;;;;18.80;67.06;100652.56;127337;1101;22399;-82
2021/06/26 01:14:50;;;;;;;12.48;11.33;;;;;;;18.80;67.42;100649.06;127856;1101;22392;-82
2021/06/26 01:17:20;;;;;;;14.15;12.95;;;;;;;18.77;67.37;100646.81;127871;1101;22385;-82
2021/06/26 01:19:50;;;;;;;15.30;12.68;;;;;;;18.74;67.45;100642.70;127841;1101;22443;-81
2021/06/26 01:22:35;;;;;;;13.93;12.73;;;;;;;18.71;67.78;100640.42;127310;1105;22395;-82
2021/06/26 01:25:11;;;;;;;13.38;12.08;;;;;;;18.69;67.65;100638.98;127240;1105;22416;-82
2021/06/26 01:27:43;;;;;;;12.28;11.28;;;;;;;18.66;67.92;100634.91;127306;1101;22485;-82
2021/06/26 01:30:16;;;;;;;13.68;12.40;;;;;;;18.64;67.82;100631.61;127810;1102;22405;-82
2021/06/26 01:32:49;;;;;;;14.40;12.68;;;;;;;18.62;68.06;100628.32;127802;1105;22756;-82
2021/06/26 01:35:20;;;;;;;15.33;13.85;;;;;;;18.61;67.86;100628.55;127803;1105;22426;-82
2021/06/26 01:37:54;;;;;;;14.68;13.38;;;;;;;18.55;68.28;100628.35;127330;1104;22436;-81
2021/06/26 01:40:27;;;;;;;16.78;15.20;;;;;;;18.51;68.11;100626.33;127889;1101;22663;-81
2021/06/26 01:42:59;;;;;;;15.08;13.88;;;;;;;18.47;68.52;100619.77;127988;1101;22752;-81
2021/06/26 01:45:37;;;;;;;16.13;14.67;;;;;;;18.42;68.49;100612.36;127998;1101;22421;-80
2021/06/26 01:48:08;;;;;;;17.33;15.83;;;;;;;18.38;68.42;100623.71;127878;1101;22429;-80
2021/06/26 01:50:39;;;;;;;15.38;14.08;;;;;;;18.32;68.54;100620.84;127371;1105;22447;-82
2021/06/26 01:53:09;;;;;;;15.63;14.23;;;;;;;18.28;69.02;100626.84;127728;1104;22396;-82
2021/06/26 01:55:39;;;;;;;15.50;14.00;;;;;;;18.23;69.48;100634.69;127782;1101;22400;-82
2021/06/26 01:58:11;;;;;;;17.58;15.90;;;;;;;18.18;69.29;100634.48;127906;1101;22408;-81
2021/06/26 02:00:41;;;;;;;15.43;14.13;;;;;;;18.16;69.68;100633.86;128126;1101;22391;-81
2021/06/26 02:03:11;;;;;;;16.68;15.18;;;;;;;18.13;69.48;100639.63;127806;1105;22486;-81
2021/06/26 02:05:42;;;;;;;16.05;14.63;;;;;;;18.10;69.68;100638.22;127387;1105;23208;-81
2021/06/26 02:08:12;;;;;;;15.83;14.50;;;;;;;18.05;69.72;100640.69;127312;1104;22426;-82
2021/06/26 02:10:44;;;;;;;18.13;16.47;;;;;;;18.01;69.79;100645.63;127732;1101;22404;-81
2021/06/26 02:13:14;;;;;;;17.73;15.58;;;;;;;17.99;70.07;100644.19;127731;1103;22447;-81
2021/06/26 02:15:44;;;;;;;16.83;15.25;;;;;;;17.95;70.20;100648.32;127267;1105;24272;-83
2021/06/26 02:18:14;;;;;;;18.07;16.47;;;;;;;17.90;70.37;100648.14;127765;1105;22387;-80
2021/06/26 02:20:44;;;;;;;18.15;16.43;;;;;;;17.86;70.37;100645.88;127316;1104;25039;-81
2021/06/26 02:23:14;;;;;;;17.88;16.28;;;;;;;17.84;70.44;100655.13;127812;1101;22417;-81
2021/06/26 02:25:44;;;;;;;18.68;16.98;;;;;;;17.82;70.80;100652.65;127904;1101;22415;-82
2021/06/26 02:28:15;;;;;;;16.43;14.88;;;;;;;17.80;70.79;100651.23;127902;1101;22441;-81
2021/06/26 02:30:45;;;;;;;16.68;15.25;;;;;;;17.79;70.80;100669.13;127338;1102;22460;-81
2021/06/26 02:33:15;;;;;;;16.60;15.20;;;;;;;17.79;71.33;100666.45;127598;1101;22440;-83
2021/06/26 02:35:47;;;;;;;18.85;17.28;;;;;;;17.77;70.91;100657.81;127766;1101;22594;-80
2021/06/26 02:38:18;;;;;;;20.25;18.50;;;;;;;17.76;71.50;100661.52;127296;1102;22468;-81
2021/06/26 02:40:48;;;;;;;21.55;19.85;;;;;;;17.74;71.10;100658.19;127886;1102;22417;-80
2021/06/26 02:43:19;;;;;;;23.18;21.13;;;;;;;17.74;71.16;100660.86;127813;1101;22458;-81
2021/06/26 02:45:49;;;;;;;;;;;;;;;17.68;71.50;100666.21;127791;1101;22421;-80
2021/06/26 02:48:22;;;;;;;23.80;21.85;;;;;;;17.64;71.67;100663.14;127833;1101;21305;-82
2021/06/26 02:50:52;;;;;;;23.93;21.48;;;;;;;17.66;71.71;100666.44;127826;1101;22426;-82
2021/06/26 02:53:22;;;;;;;22.25;20.25;;;;;;;17.68;72.16;100663.54;127293;1104;22449;-82
2021/06/26 02:55:58;;;;;;;23.75;21.70;;;;;;;17.68;71.84;100664.36;127608;1098;22431;-82
2021/06/26 02:58:28;;;;;;;22.43;20.55;;;;;;;17.69;71.71;100660.65;127878;1101;22683;-81
2021/06/26 03:00:58;;;;;;;20.95;19.15;;;;;;;17.69;71.85;100662.50;127889;1101;22407;-82
2021/06/26 03:03:29;;;;;;;20.30;18.58;;;;;;;17.68;71.95;100664.36;127939;1101;23005;-81
2021/06/26 03:05:59;;;;;;;19.70;17.98;;;;;;;17.69;71.98;100670.52;127828;1101;22426;-81
2021/06/26 03:08:30;;;;;;;20.35;18.65;;;;;;;17.68;71.76;100677.72;127852;1101;22441;-81
2021/06/26 03:11:03;;;;;;;18.20;16.70;;;;;;;17.69;71.82;100679.35;128003;1100;23361;-81
2021/06/26 03:13:33;;;;;;;20.03;18.20;;;;;;;17.69;71.95;100675.86;128223;1101;22401;-80
2021/06/26 03:16:06;;;;;;;19.83;18.13;;;;;;;17.67;72.05;100678.75;127928;1101;22507;-82
2021/06/26 03:18:42;;;;;;;19.65;18.25;;;;;;;17.65;72.22;100686.95;128258;1101;22428;-82
2021/06/26 03:21:13;;;;;;;20.40;18.55;;;;;;;17.63;72.44;100685.55;128275;1101;22480;-81
2021/06/26 03:23:44;;;;;;;18.63;17.03;;;;;;;17.60;72.09;100684.09;128004;1101;22398;-82
2021/06/26 03:26:15;;;;;;;17.43;16.00;;;;;;;17.59;71.98;100686.95;127887;1101;23423;-82
2021/06/26 03:28:46;;;;;;;17.43;15.93;;;;;;;17.55;72.05;100678.53;127983;1101;22412;-82
2021/06/26 03:31:16;;;;;;;18.18;16.68;;;;;;;17.56;72.06;100680.20;127941;1101;22396;-82
2021/06/26 03:33:47;;;;;;;17.45;15.95;;;;;;;17.54;72.23;100684.91;127949;1098;22392;-82
2021/06/26 03:36:18;;;;;;;18.75;17.13;;;;;;;17.55;72.32;100685.73;128240;1098;22386;-82
2021/06/26 03:38:48;;;;;;;18.18;16.58;;;;;;;17.55;72.14;100678.53;127969;1101;22939;-82
2021/06/26 03:41:23;;;;;;;21.05;19.15;;;;;;;17.56;72.36;100684.70;128296;1098;22399;-81
2021/06/26 03:43:58;;;;;;;18.85;17.18;;;;;;;17.58;72.28;100687.99;128305;1098;23283;-82
2021/06/26 03:46:34;;;;;;;18.93;17.43;;;;;;;17.61;72.49;100683.06;128309;1098;22391;-82
2021/06/26 03:49:08;;;;;;;20.05;18.03;;;;;;;17.65;72.46;100678.13;128342;1098;24227;-82
2021/06/26 03:51:40;;;;;;;19.90;18.03;;;;;;;17.69;72.29;100675.86;127958;1101;22405;-81
2021/06/26 03:54:10;;;;;;;21.30;19.28;;;;;;;17.73;72.40;100677.94;127959;1101;22417;-81
2021/06/26 03:56:43;;;;;;;18.85;16.95;;;;;;;17.78;72.56;100671.98;127825;1102;24565;-82
2021/06/26 03:59:13;;;;;;;18.43;16.83;;;;;;;17.81;72.57;100672.39;127326;1105;22461;-83
2021/06/26 04:01:48;;;;;;;19.00;17.38;;;;;;;17.87;72.32;100668.08;126836;1108;22469;-81
2021/06/26 04:04:21;;;;;;;19.85;18.20;;;;;;;17.92;72.01;100670.11;126937;1108;24432;-81
2021/06/26 04:06:51;;;;;;;19.20;17.53;;;;;;;17.96;72.31;100671.34;126952;1108;25084;-82
2021/06/26 04:09:21;;;;;;;18.73;17.13;;;;;;;18.02;71.89;100665.16;126976;1105;22424;-81
2021/06/26 04:11:51;;;;;;;18.65;17.03;;;;;;;18.06;71.97;100667.23;127099;1105;22430;-82
2021/06/26 04:14:22;;;;;;;17.35;15.85;;;;;;;18.12;72.03;100662.88;127267;1105;22431;-81
2021/06/26 04:16:54;;;;;;;19.13;17.33;;;;;;;18.17;71.70;100664.94;127216;1105;22421;-80
2021/06/26 04:19:25;;;;;;;18.35;16.58;;;;;;;18.24;71.69;100663.06;127388;1105;22541;-82
2021/06/26 04:21:55;;;;;;;17.23;15.50;;;;;;;18.31;71.58;100666.53;127491;1104;22397;-81
2021/06/26 04:24:28;;;;;;;17.40;15.93;;;;;;;18.37;71.67;100665.69;127843;1104;22423;-81
2021/06/26 04:26:58;;;;;;;16.78;15.30;;;;;;;18.44;71.36;100663.81;127477;1101;22536;-81
2021/06/26 04:29:29;;;;;;;19.25;15.08;;;;;;;18.52;71.29;100665.41;127787;1101;22869;-81
2021/06/26 04:32:02;;;;;;;16.78;15.13;;;;;;;18.58;71.22;100675.27;127761;1101;22409;-81
2021/06/26 04:34:36;;;;;;;;;;;;;;;18.61;70.73;100676.71;127808;1101;22469;-80
2021/06/26 04:37:08;;;;;;;15.93;14.43;;;;;;;18.63;71.38;100672.80;127831;1101;21283;-81
2021/06/26 04:39:38;;;;;;;16.47;14.63;;;;;;;18.73;70.80;100672.38;127704;1105;22615;-81
2021/06/26 04:42:08;;;;;;;16.05;14.75;;;;;;;18.83;70.97;100678.08;127285;1104;24592;-80
2021/06/26 04:44:38;;;;;;;18.35;16.65;;;;;;;18.94;70.61;100679.25;127311;1105;22527;-81
2021/06/26 04:47:08;;;;;;;15.73;14.10;;;;;;;19.03;70.36;100680.64;127319;1105;22550;-81
2021/06/26 04:50:04;;;;;;;17.20;15.68;;;;;;;19.17;70.27;100684.88;127427;1105;22529;-82
2021/06/26 04:52:47;;;;;;;16.08;14.50;;;;;;;19.31;70.27;100682.92;127945;1101;22423;-80
2021/06/26 04:55:22;;;;;;;16.65;15.00;;;;;;;19.45;69.36;100675.59;128021;1101;24572;-82
2021/06/26 04:58:30;;;;;;;15.18;14.00;;;;;;;19.59;69.03;100677.13;128186;1098;24511;-82
2021/06/26 05:01:10;;;;;;;16.40;14.68;;;;;;;19.83;69.24;100677.39;128163;1101;24260;-81
2021/06/26 05:03:48;;;;;;;15.98;14.38;;;;;;;20.08;68.35;100688.05;128177;1101;24521;-82
2021/06/26 05:06:26;;;;;;;14.75;13.30;;;;;;;20.37;68.19;100675.78;127935;1101;25043;-80
2021/06/26 05:09:27;;;;;;;14.53;13.23;;;;;;;20.66;66.99;100680.41;127890;1101;22808;-81
2021/06/26 05:12:17;;;;;;;13.65;12.38;;;;;;;20.96;66.16;100682.28;127868;1104;22471;-82
2021/06/26 05:14:53;;;;;;;14.83;11.88;;;;;;;21.16;65.05;100679.30;127378;1105;22517;-78
2021/06/26 05:17:32;;;;;;;13.35;12.13;;;;;;;21.26;63.90;100674.19;127321;1105;22622;-78
2021/06/26 05:20:16;;;;;;;12.70;11.50;;;;;;;21.34;63.61;100681.09;127096;1103;22399;-80
2021/06/26 05:23:21;;;;;;;12.30;11.33;;;;;;;21.35;63.36;100680.06;127609;1105;22423;-80
2021/06/26 05:26:11;;;;;;;12.60;11.50;;;;;;;21.38;62.80;100683.11;127369;1104;22410;-79
2021/06/26 05:28:47;;;;;;;12.80;11.60;;;;;;;21.42;62.44;100690.70;127896;1101;22417;-80
2021/06/26 05:31:24;;;;;;;13.45;11.00;;;;;;;21.45;62.65;100691.06;127732;1101;22415;-80
2021/06/26 05:34:03;;;;;;;11.30;10.28;;;;;;;21.41;61.58;100697.14;127689;1101;25006;-80
2021/06/26 05:36:43;;;;;;;13.55;12.30;;;;;;;21.41;61.75;100697.95;127984;1101;22417;-79
2021/06/26 05:39:51;;;;;;;13.70;12.50;;;;;;;21.39;61.46;100697.36;127638;1101;22761;-79
2021/06/26 05:43:06;;;;;;;;;;;;;;;;;;;;;
2021/06/26 05:46:40;;;;;;;12.80;11.48;;;;;;;21.36;61.22;100693.28;127438;1105;22474;-79
2021/06/26 05:50:00;;;;;;;11.55;10.33;;;;;;;21.48;61.32;100703.23;127224;1101;24533;-79
2021/06/26 05:53:31;;;;;;;;;;;;;;;;;;;;;
2021/06/26 05:56:41;;;;;;;14.85;9.30;;;;;;;22.47;61.59;100697.97;127607;1101;22403;-79
2021/06/26 05:59:30;;;;;;;12.15;8.58;;;;;;;23.18;60.24;100693.14;127986;1098;22954;-79
2021/06/26 06:02:55;;;;;;;8.90;7.68;;;;;;;23.88;57.68;100700.77;127988;1098;22399;-80
2021/06/26 06:05:51;;;;;;;7.90;7.10;;;;;;;24.55;55.50;100696.28;128133;1098;22404;-79
2021/06/26 06:09:05;;;;;;;9.93;6.98;;;;;;;24.96;53.87;100696.72;128029;1101;22401;-79
2021/06/26 06:12:24;;;;;;;10.15;6.48;;;;;;;25.39;53.07;100700.41;127781;1101;22408;-80
2021/06/26 06:16:08;;;;;;;6.90;5.30;;;;;;;25.81;52.00;100705.91;128079;1101;22391;-78
2021/06/26 06:19:53;;;;;;;7.98;5.30;;;;;;;26.49;49.87;100697.88;127821;1101;22385;-78
2021/06/26 06:22:51;;;;;;;7.03;4.53;;;;;;;26.78;48.81;100705.58;127752;1100;22394;-78
2021/06/26 06:25:30;;;;;;;7.88;5.28;;;;;;;27.06;48.00;100693.42;127721;1100;22407;-80
2021/06/26 06:32:18;;;;;;;5.08;4.58;;;;;;;28.06;45.08;100698.33;127648;1101;22403;-79
2021/06/26 06:36:11;;;;;;;;;;;;;;;;;;;;;
2021/06/26 06:39:18;;;;;;;5.38;3.90;;;;;;;28.36;43.17;100686.54;127067;1108;22456;-78
2021/06/26 06:42:10;;;;;;;7.90;4.50;;;;;;;28.56;42.22;100693.81;127157;1108;22455;-79
2021/06/26 06:44:44;;;;;;;7.95;3.80;;;;;;;28.64;41.74;100687.78;127210;1108;22443;-79
2021/06/26 06:47:51;;;;;;;13.95;4.40;;;;;;;28.83;40.54;100690.67;126740;1108;24611;-82
2021/06/26 06:50:26;;;;;;;4.10;3.68;;;;;;;28.92;39.83;100688.95;126861;1108;25316;-81
2021/06/26 06:53:02;;;;;;;7.15;3.85;;;;;;;29.08;39.89;100693.23;126913;1108;24611;-80
2021/06/26 06:55:38;;;;;;;4.75;3.83;;;;;;;29.29;39.32;100695.79;126967;1108;23177;-80
2021/06/26 06:58:21;;;;;;;5.25;3.50;;;;;;;29.39;38.77;100693.02;126732;1108;22453;-80
2021/06/26 07:00:58;;;;;;;5.93;4.13;;;;;;;29.49;38.42;100702.98;127148;1108;22452;-80
2021/06/26 07:03:30;;;;;;;9.10;4.75;;;;;;;29.69;37.83;100716.45;127010;1105;24572;-80
2021/06/26 07:06:06;;;;;;;8.25;4.43;;;;;;;29.72;36.75;100715.05;127521;1101;22432;-80
2021/06/26 07:08:42;;;;;;;5.80;4.13;;;;;;;29.59;36.57;100713.80;127733;1101;24524;-79
2021/06/26 07:11:18;;;;;;;6.90;4.25;;;;;;;29.44;36.42;100711.20;127680;1101;22397;-80
2021/06/26 07:13:50;;;;;;;5.50;4.40;;;;;;;29.18;36.40;100714.11;127764;1101;24531;-80
2021/06/26 07:16:27;;;;;;;6.05;4.50;;;;;;;28.96;37.01;100706.36;127808;1101;22500;-81
2021/06/26 07:19:10;;;;;;;5.55;4.35;;;;;;;28.91;37.26;100700.13;127771;1104;22391;-81
2021/06/26 07:21:51;;;;;;;4.35;3.60;;;;;;;28.99;37.19;100699.52;127740;1101;22402;-81
2021/06/26 07:24:44;;;;;;;4.85;3.68;;;;;;;29.12;37.33;100709.80;127820;1098;22413;-80
2021/06/26 07:27:21;;;;;;;6.30;3.73;;;;;;;29.13;37.17;100708.72;128126;1098;24215;-81
2021/06/26 07:30:07;;;;;;;6.13;3.85;;;;;;;29.23;37.70;100707.84;128203;1098;22407;-82
2021/06/26 07:32:46;;;;;;;5.40;3.95;;;;;;;29.40;37.44;100701.98;128305;1098;22392;-81
2021/06/26 07:35:34;;;;;;;7.48;4.60;;;;;;;29.67;37.02;100696.86;127996;1101;22363;-80
2021/06/26 07:38:09;;;;;;;4.83;3.15;;;;;;;29.98;35.72;100699.27;127866;1101;22386;-82
2021/06/26 07:40:52;;;;;;;5.08;3.78;;;;;;;30.23;35.03;100711.83;127925;1101;22391;-81
2021/06/26 07:44:03;;;;;;;5.13;3.28;;;;;;;30.34;33.93;100702.42;128277;1101;22369;-81
2021/06/26 07:46:41;;;;;;;3.43;3.13;;;;;;;30.28;33.91;100710.95;128271;1100;22397;-79
2021/06/26 07:49:31;;;;;;;4.30;3.90;;;;;;;30.35;33.30;100709.48;128237;1100;22395;-82
2021/06/26 07:52:13;;;;;;;4.85;3.43;;;;;;;30.34;32.85;100707.88;127915;1101;22420;-80
2021/06/26 07:54:56;;;;;;;4.53;3.25;;;;;;;30.21;32.56;100708.58;127402;1105;22429;-79
2021/06/26 07:57:51;;;;;;;5.33;3.00;;;;;;;30.23;33.35;100709.92;127272;1105;22453;-80
2021/06/26 08:00:29;;;;;;;3.43;3.13;;;;;;;30.45;32.87;100708.55;127728;1105;22430;-81
2021/06/26 08:03:17;;;;;;;4.30;3.07;;;;;;;30.46;32.10;100707.47;127233;1108;24581;-82
2021/06/26 08:05:56;;;;;;;6.30;3.28;;;;;;;30.25;32.21;100698.71;127247;1108;22441;-82
2021/06/26 08:09:08;;;;;;;;;;;;;;;;;;;;;
2021/06/26 08:12:25;;;;;;;10.35;7.45;;;;;;;30.46;32.96;100700.09;128074;1098;22394;-82
2021/06/26 08:20:17;;;;;;;4.45;3.40;;;;;;;30.93;31.90;100703.84;127880;1101;22414;-84
2021/06/26 08:23:49;;;;;;;;;;;;;;;;;;;;;
2021/06/26 08:27:20;;;;;;;4.88;2.80;;;;;;;31.30;31.38;100693.17;127677;1104;24533;-82
2021/06/26 08:30:49;;;;;;;3.20;2.90;;;;;;;31.38;31.20;100695.23;127103;1108;22387;-82
2021/06/26 08:33:51;;;;;;;5.15;3.80;;;;;;;30.92;31.42;100695.94;127106;1108;24241;-83
2021/06/26 08:37:13;;;;;;;;;;;;;;;;;;;;;
2021/06/26 08:40:40;;;;;;;;;;;;;;;;;;;;;
2021/06/26 08:44:11;;;;;;;;;;;;;;;;;;;;;
2021/06/26 08:47:56;;;;;;;3.18;2.58;;;;;;;29.64;33.38;100680.30;126977;1108;24582;-83
2021/06/26 08:51:38;;;;;;;;;;;;;;;;;;;;;
2021/06/26 08:55:03;;;;;;;;;;;;;;;;;;;;;
2021/06/26 08:58:24;;;;;;;5.50;3.03;;;;;;;30.75;31.64;100690.97;126889;1111;22555;-82
2021/06/26 09:01:37;;;;;;;5.30;4.10;;;;;;;30.16;32.34;100684.09;126663;1111;22475;-82
2021/06/26 09:05:02;;;;;;;;;;;;;;;;;;;;;
2021/06/26 09:08:27;;;;;;;6.10;3.75;;;;;;;28.91;34.61;100690.06;126649;1111;22516;-82
2021/06/26 09:15:28;;;;;;;7.80;4.80;;;;;;;27.48;38.04;100701.34;126401;1111;21302;-82
2021/06/26 09:18:54;;;;;;;7.38;4.90;;;;;;;26.91;39.08;100695.03;126786;1108;22465;-82
2021/06/26 09:22:11;;;;;;;;;;;;;;;;;;;;;
2021/06/26 09:25:35;;;;;;;8.75;5.08;;;;;;;25.79;42.42;100686.36;126710;1111;21324;-81
2021/06/26 09:29:02;;;;;;;6.45;4.95;;;;;;;25.44;44.83;100682.34;127047;1107;22465;-82
2021/06/26 09:32:15;;;;;;;6.18;5.10;;;;;;;25.23;45.67;100683.25;127252;1104;22855;-83
2021/06/26 09:34:59;;;;;;;9.55;5.73;;;;;;;24.97;46.59;100671.35;127239;1105;22439;-82
2021/06/26 09:38:15;;;;;;;6.58;5.73;;;;;;;24.80;47.56;100671.45;127220;1105;22448;-82
2021/06/26 09:41:26;;;;;;;7.68;5.78;;;;;;;24.68;49.00;100673.48;127261;1105;22497;-82
2021/06/26 09:45:04;;;;;;;8.20;5.83;;;;;;;24.56;48.56;100671.73;127566;1105;22436;-83
2021/06/26 09:48:20;;;;;;;6.88;5.35;;;;;;;24.49;48.68;100665.72;127589;1105;22427;-82
2021/06/26 09:51:28;;;;;;;9.85;8.95;;;;;;;24.50;49.06;100661.13;127171;1105;22543;-82
2021/06/26 09:54:55;;;;;;;6.55;5.55;;;;;;;24.51;49.02;100670.86;128067;1101;24549;-82
2021/06/26 09:58:39;;;;;;;;;;;;;;;;;;;;;
2021/06/26 10:01:24;;;;;;;7.43;5.50;;;;;;;24.71;48.49;100659.46;128192;1101;25062;-79
2021/06/26 10:04:08;;;;;;;6.30;4.90;;;;;;;24.81;47.49;100654.16;127584;1101;23207;-79
2021/06/26 10:07:11;;;;;;;5.48;4.58;;;;;;;24.97;47.38;100647.84;127354;1105;22494;-79
2021/06/26 10:10:28;;;;;;;4.58;4.18;;;;;;;25.17;46.30;100655.34;127562;1101;24028;-79
2021/06/26 10:13:57;;;;;;;4.95;4.03;;;;;;;25.39;44.96;100651.72;127873;1101;22401;-79
2021/06/26 10:17:44;;;;;;;5.73;4.20;;;;;;;25.63;44.16;100653.00;127489;1104;24546;-80
2021/06/26 10:20:58;;;;;;;5.43;4.90;;;;;;;25.88;43.68;100660.48;127575;1105;22401;-79
2021/06/26 10:23:59;;;;;;;8.05;4.20;;;;;;;26.07;42.97;100646.52;127039;1105;22460;-79
2021/06/26 10:27:30;;;;;;;5.48;4.13;;;;;;;26.20;41.82;100654.97;127073;1105;24411;-79
2021/06/26 10:30:36;;;;;;;;;;;;;;;;;;;;;
2021/06/26 10:33:55;;;;;;;5.37;4.27;;;;;;;26.68;41.16;100658.39;126907;1108;22684;-79
2021/06/26 10:37:12;;;;;;;;;;;;;;;;;;;;;
2021/06/26 10:40:31;;;;;;;;;;;;;;;;;;;;;
2021/06/26 10:43:54;;;;;;;4.45;4.05;;;;;;;27.57;39.77;100653.59;127029;1108;22437;-79
2021/06/26 10:46:59;;;;;;;4.25;3.50;;;;;;;27.75;38.77;100654.09;127165;1105;22404;-78
2021/06/26 10:50:07;;;;;;;4.00;3.50;;;;;;;27.73;38.58;100646.24;127540;1105;22413;-79
2021/06/26 10:53:56;;;;;;;6.50;5.50;;;;;;;27.73;38.80;100648.15;127303;1105;22406;-79
2021/06/26 10:57:49;;;;;;;6.40;5.57;;;;;;;27.82;38.82;100643.80;127534;1103;22455;-79
2021/06/26 11:01:17;;;;;;;5.53;3.53;;;;;;;27.88;38.51;100645.41;127054;1105;22443;-80
2021/06/26 11:04:50;;;;;;;6.60;4.20;;;;;;;27.73;38.13;100650.86;127175;1104;22471;-79
2021/06/26 11:08:45;;;;;;;6.60;3.83;;;;;;;27.52;38.23;100656.30;127485;1101;22465;-79
2021/06/26 11:12:13;;;;;;;14.43;4.83;;;;;;;27.16;39.08;100674.51;127046;1106;22446;-79
2021/06/26 11:15:57;;;;;;;4.93;4.43;;;;;;;26.60;40.47;100688.73;126681;1111;22446;-79
2021/06/26 11:19:32;;;;;;;;;;;;;;;;;;;;;
2021/06/26 11:22:33;;;;;;;10.83;4.73;;;;;;;25.52;43.03;100689.96;126967;1111;24267;-80
2021/06/26 11:25:51;;;;;;;9.57;6.07;;;;;;;24.87;45.23;100701.78;126940;1110;22448;-79
2021/06/26 11:29:51;;;;;;;16.85;8.90;;;;;;;24.23;47.96;100718.55;126660;1111;22456;-79
2021/06/26 11:33:34;;;;;;;14.83;8.58;;;;;;;23.26;50.67;100711.63;126812;1105;22440;-81
2021/06/26 11:37:42;;;;;;;16.58;10.35;;;;;;;22.63;53.77;100718.77;127365;1101;22407;-79
2021/06/26 11:41:14;;;;;;;11.88;10.03;;;;;;;22.21;55.97;100716.26;127864;1101;22426;-80
2021/06/26 11:44:35;;;;;;;10.75;8.55;;;;;;;21.94;57.64;100705.14;127267;1101;22419;-81
2021/06/26 11:48:20;;;;;;;8.95;8.15;;;;;;;21.66;58.52;100708.53;127351;1105;24653;-79
2021/06/26 11:51:25;;;;;;;11.75;8.73;;;;;;;21.49;60.25;100700.33;127465;1108;22572;-79
2021/06/26 11:54:34;;;;;;;16.30;8.65;;;;;;;21.32;60.48;100702.80;127170;1108;22443;-79
2021/06/26 11:57:23;;;;;;;10.80;8.93;;;;;;;21.23;61.48;100706.08;126787;1108;24456;-80
2021/06/26 12:00:25;;;;;;;8.45;7.68;;;;;;;21.10;61.93;100704.39;127000;1108;22456;-80
2021/06/26 12:03:39;;;;;;;8.70;7.83;;;;;;;20.88;62.37;100714.81;126780;1111;22457;-80
2021/06/26 12:06:57;;;;;;;10.03;9.03;;;;;;;20.68;63.14;100702.45;126897;1111;25503;-82
2021/06/26 12:10:26;;;;;;;11.50;10.37;;;;;;;20.65;64.40;100705.59;126950;1108;22443;-80
2021/06/26 12:13:28;;;;;;;16.70;15.15;;;;;;;20.72;65.64;100696.63;126557;1111;22421;-80
2021/06/26 12:16:48;;;;;;;17.30;15.77;;;;;;;20.79;66.19;100700.89;126534;1110;22411;-80
2021/06/26 12:20:26;;;;;;;;;;;;;;;;;;;;;
2021/06/26 12:23:52;;;;;;;;;;;;;;;;;;;;;
2021/06/26 12:27:55;;;;;;;8.58;6.45;;;;;;;21.00;66.53;100691.52;126821;1105;22402;-79
2021/06/26 12:31:10;;;;;;;6.15;5.55;;;;;;;21.08;67.22;100684.98;127581;1101;22440;-80
2021/06/26 12:35:02;;;;;;;8.13;6.57;;;;;;;21.19;66.86;100675.32;127376;1104;22458;-80
2021/06/26 12:38:53;;;;;;;6.60;6.00;;;;;;;21.27;66.89;100675.82;127000;1105;22405;-79
2021/06/26 12:42:07;;;;;;;5.68;5.10;;;;;;;21.28;66.39;100674.76;127268;1105;22416;-78
2021/06/26 12:45:11;;;;;;;6.00;5.40;;;;;;;21.34;66.61;100673.03;127340;1105;22403;-79
2021/06/26 12:48:28;;;;;;;5.48;4.98;;;;;;;21.37;66.22;100669.91;126838;1108;22853;-79
2021/06/26 12:51:30;;;;;;;5.45;4.95;;;;;;;21.40;66.24;100665.95;126666;1108;23108;-79
2021/06/26 12:54:34;;;;;;;;;;;;;;;;;;;;;
2021/06/26 12:57:52;;;;;;;4.70;4.30;;;;;;;21.36;65.40;100662.91;127439;1105;22419;-80
2021/06/26 13:01:02;;;;;;;5.58;5.08;;;;;;;21.38;65.57;100658.92;127544;1104;22843;-79
2021/06/26 13:04:53;;;;;;;4.88;4.38;;;;;;;21.38;65.63;100655.41;127434;1105;22333;-81
2021/06/26 13:08:18;;;;;;;4.90;4.58;;;;;;;21.41;64.89;100648.77;127313;1104;24246;-81
2021/06/26 13:11:37;;;;;;;5.25;4.75;;;;;;;21.45;65.18;100658.81;127975;1101;22412;-80
2021/06/26 13:15:02;;;;;;;5.03;4.63;;;;;;;21.48;64.86;100647.59;127915;1101;24641;-80
2021/06/26 13:19:01;;;;;;;5.30;4.85;;;;;;;21.53;65.22;100646.92;128008;1101;25065;-79
2021/06/26 13:21:35;;;;;;;7.27;5.73;;;;;;;21.56;64.55;100655.33;128093;1098;24563;-79
2021/06/26 13:24:48;;;;;;;5.40;4.83;;;;;;;21.65;64.69;100649.59;128105;1097;22420;-80
2021/06/26 13:27:51;;;;;;;7.38;6.23;;;;;;;21.74;65.16;100645.51;128349;1097;22420;-79
2021/06/26 13:31:21;;;;;;;;;;;;;;;;;;;;;
2021/06/26 13:34:31;;;;;;;9.88;8.30;;;;;;;21.97;64.85;100656.25;128300;1101;22422;-79
2021/06/26 13:38:10;;;;;;;10.53;7.33;;;;;;;22.09;64.43;100645.45;128045;1101;22409;-79
2021/06/26 13:41:10;;;;;;;8.93;7.45;;;;;;;22.22;64.27;100647.11;127858;1099;22412;-80
2021/06/26 13:43:50;;;;;;;10.00;8.70;;;;;;;22.35;63.50;100644.15;128228;1101;25188;-79
2021/06/26 13:46:32;;;;;;;9.93;7.83;;;;;;;22.47;63.13;100631.48;127955;1101;22416;-78
2021/06/26 13:49:47;;;;;;;9.47;7.30;;;;;;;22.58;62.33;100632.48;128172;1100;22420;-80
2021/06/26 13:53:22;;;;;;;;;;;;;;;;;;;;;
2021/06/26 13:56:56;;;;;;;9.58;8.28;;;;;;;22.74;61.67;100629.02;128107;1101;22508;-80